<?xml version="1.0" encoding="UTF-8" standalone="no" ?>
<gpx xmlns="http://www.topografix.com/GPX/1/1" xmlns:xsi="http://www.w3.org/2001/XMLSchema-instance" xsi:schemaLocation="http://www.topografix.com/GPX/1/1 http://www.topografix.com/GPX/1/1/gpx.xsd" version="1.1" creator="VisuGPX - https://www.visugpx.com">
  <metadata>
    <name>la Baume Cornillane Mazouyer</name>
    <desc><![CDATA[File with points/tracks from Locus Map/3.37.2]]></desc>
  </metadata>
  <trk>
    <name><![CDATA[F26120 la Baume Cornillane Mazouyer AM RGEO JR]]></name>
    <trkseg>
      <trkpt lat="44.82337" lon="5.03983">
        <ele>330.12</ele>
        <time>2019-03-28T13:00:17.000Z</time>
      </trkpt>
      <trkpt lat="44.82333" lon="5.03957">
        <ele>328.25</ele>
        <time>2019-03-28T13:00:58.000Z</time>
      </trkpt>
      <trkpt lat="44.82306" lon="5.03959">
        <ele>329.71</ele>
        <time>2019-03-28T13:01:18.000Z</time>
      </trkpt>
      <trkpt lat="44.82317" lon="5.0398">
        <ele>331.15</ele>
        <time>2019-03-28T13:02:03.000Z</time>
      </trkpt>
      <trkpt lat="44.82328" lon="5.04">
        <ele>332.41</ele>
        <time>2019-03-28T13:02:23.000Z</time>
      </trkpt>
      <trkpt lat="44.82338" lon="5.04024">
        <ele>333.9</ele>
        <time>2019-03-28T13:02:54.000Z</time>
      </trkpt>
      <trkpt lat="44.82337" lon="5.04052">
        <ele>336.85</ele>
        <time>2019-03-28T13:04:09.000Z</time>
      </trkpt>
      <trkpt lat="44.82359" lon="5.04089">
        <ele>339.36</ele>
        <time>2019-03-28T13:04:29.000Z</time>
      </trkpt>
      <trkpt lat="44.82366" lon="5.04117">
        <ele>343.16</ele>
        <time>2019-03-28T13:06:05.000Z</time>
      </trkpt>
      <trkpt lat="44.82369" lon="5.04143">
        <ele>347.76</ele>
        <time>2019-03-28T13:07:03.000Z</time>
      </trkpt>
      <trkpt lat="44.82369" lon="5.04168">
        <ele>353.26</ele>
        <time>2019-03-28T13:07:37.000Z</time>
      </trkpt>
      <trkpt lat="44.82349" lon="5.04184">
        <ele>359.45</ele>
        <time>2019-03-28T13:07:57.000Z</time>
      </trkpt>
      <trkpt lat="44.82367" lon="5.04198">
        <ele>360.66</ele>
        <time>2019-03-28T13:08:17.000Z</time>
      </trkpt>
      <trkpt lat="44.82373" lon="5.04222">
        <ele>365.53</ele>
        <time>2019-03-28T13:11:43.000Z</time>
      </trkpt>
      <trkpt lat="44.82381" lon="5.04248">
        <ele>369.78</ele>
        <time>2019-03-28T13:12:18.000Z</time>
      </trkpt>
      <trkpt lat="44.82383" lon="5.04273">
        <ele>375.48</ele>
        <time>2019-03-28T13:12:45.000Z</time>
      </trkpt>
      <trkpt lat="44.82388" lon="5.04299">
        <ele>381.17</ele>
        <time>2019-03-28T13:13:45.000Z</time>
      </trkpt>
      <trkpt lat="44.8238" lon="5.04323">
        <ele>388.53</ele>
        <time>2019-03-28T13:14:06.000Z</time>
      </trkpt>
      <trkpt lat="44.82377" lon="5.04349">
        <ele>392.09</ele>
        <time>2019-03-28T13:14:36.000Z</time>
      </trkpt>
      <trkpt lat="44.82353" lon="5.04344">
        <ele>396.56</ele>
        <time>2019-03-28T13:15:32.000Z</time>
      </trkpt>
      <trkpt lat="44.82338" lon="5.04363">
        <ele>396.81</ele>
        <time>2019-03-28T13:15:53.000Z</time>
      </trkpt>
      <trkpt lat="44.82332" lon="5.04335">
        <ele>398.05</ele>
        <time>2019-03-28T13:18:18.000Z</time>
      </trkpt>
      <trkpt lat="44.8232" lon="5.04316">
        <ele>395.72</ele>
        <time>2019-03-28T13:19:06.000Z</time>
      </trkpt>
      <trkpt lat="44.82332" lon="5.04336">
        <ele>398.09</ele>
        <time>2019-03-28T13:24:40.000Z</time>
      </trkpt>
      <trkpt lat="44.82332" lon="5.04366">
        <ele>396.31</ele>
        <time>2019-03-28T13:25:00.000Z</time>
      </trkpt>
      <trkpt lat="44.82348" lon="5.04377">
        <ele>394.85</ele>
        <time>2019-03-28T13:26:08.000Z</time>
      </trkpt>
      <trkpt lat="44.82366" lon="5.04383">
        <ele>393.33</ele>
        <time>2019-03-28T13:26:58.000Z</time>
      </trkpt>
      <trkpt lat="44.82392" lon="5.04386">
        <ele>391.41</ele>
        <time>2019-03-28T13:30:10.000Z</time>
      </trkpt>
      <trkpt lat="44.8243" lon="5.04382">
        <ele>389.23</ele>
        <time>2019-03-28T13:30:30.000Z</time>
      </trkpt>
      <trkpt lat="44.82487" lon="5.04387">
        <ele>388.75</ele>
        <time>2019-03-28T13:30:50.000Z</time>
      </trkpt>
      <trkpt lat="44.82505" lon="5.04392">
        <ele>390.25</ele>
        <time>2019-03-28T13:31:22.000Z</time>
      </trkpt>
      <trkpt lat="44.82508" lon="5.04418">
        <ele>392.49</ele>
        <time>2019-03-28T13:31:44.000Z</time>
      </trkpt>
      <trkpt lat="44.82485" lon="5.04446">
        <ele>388.26</ele>
        <time>2019-03-28T13:32:05.000Z</time>
      </trkpt>
      <trkpt lat="44.82539" lon="5.04453">
        <ele>392.75</ele>
        <time>2019-03-28T13:32:25.000Z</time>
      </trkpt>
      <trkpt lat="44.82549" lon="5.04476">
        <ele>391.62</ele>
        <time>2019-03-28T13:32:50.000Z</time>
      </trkpt>
      <trkpt lat="44.8255" lon="5.04503">
        <ele>390.26</ele>
        <time>2019-03-28T13:33:15.000Z</time>
      </trkpt>
      <trkpt lat="44.82545" lon="5.04529">
        <ele>390.19</ele>
        <time>2019-03-28T13:33:36.000Z</time>
      </trkpt>
      <trkpt lat="44.82543" lon="5.04556">
        <ele>392.12</ele>
        <time>2019-03-28T13:34:24.000Z</time>
      </trkpt>
      <trkpt lat="44.82557" lon="5.04573">
        <ele>396.62</ele>
        <time>2019-03-28T13:35:36.000Z</time>
      </trkpt>
      <trkpt lat="44.82572" lon="5.04587">
        <ele>400.04</ele>
        <time>2019-03-28T13:36:45.000Z</time>
      </trkpt>
      <trkpt lat="44.8259" lon="5.04597">
        <ele>402.08</ele>
        <time>2019-03-28T13:37:21.000Z</time>
      </trkpt>
      <trkpt lat="44.82614" lon="5.0462">
        <ele>401.35</ele>
        <time>2019-03-28T13:37:41.000Z</time>
      </trkpt>
      <trkpt lat="44.82624" lon="5.04643">
        <ele>398.73</ele>
        <time>2019-03-28T13:38:03.000Z</time>
      </trkpt>
      <trkpt lat="44.82633" lon="5.04667">
        <ele>396.38</ele>
        <time>2019-03-28T13:38:37.000Z</time>
      </trkpt>
      <trkpt lat="44.82635" lon="5.04701">
        <ele>393.11</ele>
        <time>2019-03-28T13:38:57.000Z</time>
      </trkpt>
      <trkpt lat="44.82639" lon="5.04738">
        <ele>390.34</ele>
        <time>2019-03-28T13:39:17.000Z</time>
      </trkpt>
      <trkpt lat="44.82634" lon="5.04767">
        <ele>389.82</ele>
        <time>2019-03-28T13:39:37.000Z</time>
      </trkpt>
      <trkpt lat="44.82636" lon="5.04792">
        <ele>390.78</ele>
        <time>2019-03-28T13:40:11.000Z</time>
      </trkpt>
      <trkpt lat="44.82622" lon="5.04809">
        <ele>391.09</ele>
        <time>2019-03-28T13:40:39.000Z</time>
      </trkpt>
      <trkpt lat="44.82615" lon="5.04834">
        <ele>392.25</ele>
        <time>2019-03-28T13:41:01.000Z</time>
      </trkpt>
      <trkpt lat="44.82603" lon="5.04853">
        <ele>392.85</ele>
        <time>2019-03-28T13:41:39.000Z</time>
      </trkpt>
      <trkpt lat="44.82601" lon="5.04883">
        <ele>395.13</ele>
        <time>2019-03-28T13:42:01.000Z</time>
      </trkpt>
      <trkpt lat="44.82591" lon="5.04904">
        <ele>396.85</ele>
        <time>2019-03-28T13:42:23.000Z</time>
      </trkpt>
      <trkpt lat="44.82583" lon="5.04928">
        <ele>400.01</ele>
        <time>2019-03-28T13:42:50.000Z</time>
      </trkpt>
      <trkpt lat="44.82588" lon="5.04957">
        <ele>407.07</ele>
        <time>2019-03-28T13:43:10.000Z</time>
      </trkpt>
      <trkpt lat="44.82573" lon="5.04972">
        <ele>409.42</ele>
        <time>2019-03-28T13:43:43.000Z</time>
      </trkpt>
      <trkpt lat="44.82558" lon="5.0499">
        <ele>412.22</ele>
        <time>2019-03-28T13:44:24.000Z</time>
      </trkpt>
      <trkpt lat="44.82547" lon="5.05013">
        <ele>413.25</ele>
        <time>2019-03-28T13:45:25.000Z</time>
      </trkpt>
      <trkpt lat="44.82553" lon="5.05038">
        <ele>412.71</ele>
        <time>2019-03-28T13:45:58.000Z</time>
      </trkpt>
      <trkpt lat="44.82564" lon="5.05058">
        <ele>413.36</ele>
        <time>2019-03-28T13:46:57.000Z</time>
      </trkpt>
      <trkpt lat="44.82575" lon="5.0508">
        <ele>414.39</ele>
        <time>2019-03-28T13:47:24.000Z</time>
      </trkpt>
      <trkpt lat="44.82596" lon="5.05101">
        <ele>416.53</ele>
        <time>2019-03-28T13:47:44.000Z</time>
      </trkpt>
      <trkpt lat="44.82614" lon="5.05115">
        <ele>418.42</ele>
        <time>2019-03-28T13:48:04.000Z</time>
      </trkpt>
      <trkpt lat="44.82624" lon="5.05138">
        <ele>417.52</ele>
        <time>2019-03-28T13:49:51.000Z</time>
      </trkpt>
      <trkpt lat="44.82637" lon="5.05163">
        <ele>418.88</ele>
        <time>2019-03-28T13:50:11.000Z</time>
      </trkpt>
      <trkpt lat="44.82642" lon="5.05201">
        <ele>419.49</ele>
        <time>2019-03-28T13:50:31.000Z</time>
      </trkpt>
      <trkpt lat="44.82644" lon="5.05227">
        <ele>420.11</ele>
        <time>2019-03-28T13:51:02.000Z</time>
      </trkpt>
      <trkpt lat="44.82649" lon="5.05252">
        <ele>421.22</ele>
        <time>2019-03-28T13:51:49.000Z</time>
      </trkpt>
      <trkpt lat="44.82646" lon="5.05278">
        <ele>422.93</ele>
        <time>2019-03-28T13:52:12.000Z</time>
      </trkpt>
      <trkpt lat="44.82638" lon="5.053">
        <ele>425.36</ele>
        <time>2019-03-28T13:52:32.000Z</time>
      </trkpt>
      <trkpt lat="44.8263" lon="5.05325">
        <ele>428.54</ele>
        <time>2019-03-28T13:53:01.000Z</time>
      </trkpt>
      <trkpt lat="44.82618" lon="5.05348">
        <ele>431.85</ele>
        <time>2019-03-28T13:53:21.000Z</time>
      </trkpt>
      <trkpt lat="44.82602" lon="5.0536">
        <ele>433.71</ele>
        <time>2019-03-28T13:54:44.000Z</time>
      </trkpt>
      <trkpt lat="44.82598" lon="5.05387">
        <ele>437.37</ele>
        <time>2019-03-28T13:55:13.000Z</time>
      </trkpt>
      <trkpt lat="44.8259" lon="5.0541">
        <ele>438.93</ele>
        <time>2019-03-28T13:55:44.000Z</time>
      </trkpt>
      <trkpt lat="44.82602" lon="5.05434">
        <ele>441.57</ele>
        <time>2019-03-28T13:56:23.000Z</time>
      </trkpt>
      <trkpt lat="44.82594" lon="5.05458">
        <ele>440.15</ele>
        <time>2019-03-28T13:56:50.000Z</time>
      </trkpt>
      <trkpt lat="44.82609" lon="5.05479">
        <ele>442.4</ele>
        <time>2019-03-28T13:57:28.000Z</time>
      </trkpt>
      <trkpt lat="44.82626" lon="5.05496">
        <ele>445.94</ele>
        <time>2019-03-28T13:57:54.000Z</time>
      </trkpt>
      <trkpt lat="44.82631" lon="5.0552">
        <ele>448.27</ele>
        <time>2019-03-28T13:58:53.000Z</time>
      </trkpt>
      <trkpt lat="44.82636" lon="5.05546">
        <ele>451.13</ele>
        <time>2019-03-28T14:01:13.000Z</time>
      </trkpt>
      <trkpt lat="44.82652" lon="5.05565">
        <ele>458.22</ele>
        <time>2019-03-28T14:04:00.000Z</time>
      </trkpt>
      <trkpt lat="44.82679" lon="5.05579">
        <ele>467.78</ele>
        <time>2019-03-28T14:04:20.000Z</time>
      </trkpt>
      <trkpt lat="44.82691" lon="5.05605">
        <ele>473.85</ele>
        <time>2019-03-28T14:07:09.000Z</time>
      </trkpt>
      <trkpt lat="44.82693" lon="5.05644">
        <ele>478.3</ele>
        <time>2019-03-28T14:07:29.000Z</time>
      </trkpt>
      <trkpt lat="44.82688" lon="5.05669">
        <ele>479.94</ele>
        <time>2019-03-28T14:10:04.000Z</time>
      </trkpt>
      <trkpt lat="44.82695" lon="5.05693">
        <ele>485.92</ele>
        <time>2019-03-28T14:10:40.000Z</time>
      </trkpt>
      <trkpt lat="44.82695" lon="5.0572">
        <ele>490.18</ele>
        <time>2019-03-28T14:11:37.000Z</time>
      </trkpt>
      <trkpt lat="44.82674" lon="5.05742">
        <ele>483.27</ele>
        <time>2019-03-28T14:12:18.000Z</time>
      </trkpt>
      <trkpt lat="44.82685" lon="5.05764">
        <ele>491.89</ele>
        <time>2019-03-28T14:12:41.000Z</time>
      </trkpt>
      <trkpt lat="44.82688" lon="5.0579">
        <ele>496.93</ele>
        <time>2019-03-28T14:13:07.000Z</time>
      </trkpt>
      <trkpt lat="44.82679" lon="5.05812">
        <ele>496.23</ele>
        <time>2019-03-28T14:14:27.000Z</time>
      </trkpt>
      <trkpt lat="44.82676" lon="5.05841">
        <ele>500.37</ele>
        <time>2019-03-28T14:15:11.000Z</time>
      </trkpt>
      <trkpt lat="44.82673" lon="5.05871">
        <ele>506.82</ele>
        <time>2019-03-28T14:15:31.000Z</time>
      </trkpt>
      <trkpt lat="44.82676" lon="5.05896">
        <ele>514.79</ele>
        <time>2019-03-28T14:17:55.000Z</time>
      </trkpt>
      <trkpt lat="44.82671" lon="5.05921">
        <ele>518.95</ele>
        <time>2019-03-28T14:18:47.000Z</time>
      </trkpt>
      <trkpt lat="44.82673" lon="5.05948">
        <ele>524.3</ele>
        <time>2019-03-28T14:20:05.000Z</time>
      </trkpt>
      <trkpt lat="44.82687" lon="5.05974">
        <ele>528.25</ele>
        <time>2019-03-28T14:20:25.000Z</time>
      </trkpt>
      <trkpt lat="44.827" lon="5.05995">
        <ele>527.01</ele>
        <time>2019-03-28T14:20:59.000Z</time>
      </trkpt>
      <trkpt lat="44.82708" lon="5.06019">
        <ele>524.54</ele>
        <time>2019-03-28T14:24:19.000Z</time>
      </trkpt>
      <trkpt lat="44.82701" lon="5.06044">
        <ele>528</ele>
        <time>2019-03-28T14:24:44.000Z</time>
      </trkpt>
      <trkpt lat="44.82699" lon="5.0607">
        <ele>529.97</ele>
        <time>2019-03-28T14:25:52.000Z</time>
      </trkpt>
      <trkpt lat="44.82698" lon="5.06097">
        <ele>531.77</ele>
        <time>2019-03-28T14:26:12.000Z</time>
      </trkpt>
      <trkpt lat="44.82694" lon="5.06122">
        <ele>535.2</ele>
        <time>2019-03-28T14:35:57.000Z</time>
      </trkpt>
      <trkpt lat="44.82702" lon="5.06154">
        <ele>531.84</ele>
        <time>2019-03-28T14:36:17.000Z</time>
      </trkpt>
      <trkpt lat="44.82704" lon="5.06181">
        <ele>533.67</ele>
        <time>2019-03-28T14:38:01.000Z</time>
      </trkpt>
      <trkpt lat="44.82707" lon="5.06209">
        <ele>536.36</ele>
        <time>2019-03-28T14:38:21.000Z</time>
      </trkpt>
      <trkpt lat="44.82711" lon="5.06234">
        <ele>539.34</ele>
        <time>2019-03-28T14:38:42.000Z</time>
      </trkpt>
      <trkpt lat="44.82722" lon="5.06255">
        <ele>538.15</ele>
        <time>2019-03-28T14:39:05.000Z</time>
      </trkpt>
      <trkpt lat="44.82717" lon="5.06281">
        <ele>543.84</ele>
        <time>2019-03-28T14:39:25.000Z</time>
      </trkpt>
      <trkpt lat="44.82736" lon="5.06306">
        <ele>540.81</ele>
        <time>2019-03-28T14:39:45.000Z</time>
      </trkpt>
      <trkpt lat="44.82755" lon="5.06309">
        <ele>540.2</ele>
        <time>2019-03-28T14:41:05.000Z</time>
      </trkpt>
      <trkpt lat="44.82761" lon="5.06285">
        <ele>538.04</ele>
        <time>2019-03-28T14:41:43.000Z</time>
      </trkpt>
      <trkpt lat="44.82777" lon="5.06268">
        <ele>540.48</ele>
        <time>2019-03-28T14:42:43.000Z</time>
      </trkpt>
      <trkpt lat="44.82797" lon="5.06252">
        <ele>545.99</ele>
        <time>2019-03-28T14:43:03.000Z</time>
      </trkpt>
      <trkpt lat="44.82808" lon="5.06232">
        <ele>545.65</ele>
        <time>2019-03-28T14:43:28.000Z</time>
      </trkpt>
      <trkpt lat="44.82824" lon="5.06218">
        <ele>546.95</ele>
        <time>2019-03-28T14:44:30.000Z</time>
      </trkpt>
      <trkpt lat="44.82843" lon="5.06216">
        <ele>548.28</ele>
        <time>2019-03-28T14:46:01.000Z</time>
      </trkpt>
      <trkpt lat="44.82866" lon="5.06224">
        <ele>546.99</ele>
        <time>2019-03-28T14:46:21.000Z</time>
      </trkpt>
      <trkpt lat="44.82883" lon="5.06237">
        <ele>546.01</ele>
        <time>2019-03-28T14:47:14.000Z</time>
      </trkpt>
      <trkpt lat="44.82924" lon="5.06268">
        <ele>550.41</ele>
        <time>2019-03-28T14:47:34.000Z</time>
      </trkpt>
      <trkpt lat="44.82945" lon="5.06279">
        <ele>555.92</ele>
        <time>2019-03-28T14:48:38.000Z</time>
      </trkpt>
      <trkpt lat="44.82975" lon="5.06273">
        <ele>556.49</ele>
        <time>2019-03-28T14:48:58.000Z</time>
      </trkpt>
      <trkpt lat="44.83" lon="5.06274">
        <ele>560.25</ele>
        <time>2019-03-28T14:49:18.000Z</time>
      </trkpt>
      <trkpt lat="44.83013" lon="5.06256">
        <ele>555.99</ele>
        <time>2019-03-28T14:49:52.000Z</time>
      </trkpt>
      <trkpt lat="44.83032" lon="5.06249">
        <ele>558.92</ele>
        <time>2019-03-28T14:50:12.000Z</time>
      </trkpt>
      <trkpt lat="44.83049" lon="5.06237">
        <ele>560.34</ele>
        <time>2019-03-28T14:50:32.000Z</time>
      </trkpt>
      <trkpt lat="44.83072" lon="5.06232">
        <ele>564.61</ele>
        <time>2019-03-28T14:52:01.000Z</time>
      </trkpt>
      <trkpt lat="44.8311" lon="5.0621">
        <ele>560.36</ele>
        <time>2019-03-28T14:52:21.000Z</time>
      </trkpt>
      <trkpt lat="44.83128" lon="5.06207">
        <ele>559.13</ele>
        <time>2019-03-28T14:53:03.000Z</time>
      </trkpt>
      <trkpt lat="44.83151" lon="5.06208">
        <ele>557.12</ele>
        <time>2019-03-28T14:53:23.000Z</time>
      </trkpt>
      <trkpt lat="44.83167" lon="5.0622">
        <ele>556.08</ele>
        <time>2019-03-28T14:53:45.000Z</time>
      </trkpt>
      <trkpt lat="44.83165" lon="5.06249">
        <ele>557.49</ele>
        <time>2019-03-28T14:55:45.000Z</time>
      </trkpt>
      <trkpt lat="44.83153" lon="5.06303">
        <ele>554.8</ele>
        <time>2019-03-28T14:56:05.000Z</time>
      </trkpt>
      <trkpt lat="44.83141" lon="5.06327">
        <ele>556.55</ele>
        <time>2019-03-28T14:56:25.000Z</time>
      </trkpt>
      <trkpt lat="44.8314" lon="5.06352">
        <ele>553.19</ele>
        <time>2019-03-28T14:57:04.000Z</time>
      </trkpt>
      <trkpt lat="44.83124" lon="5.0637">
        <ele>558.66</ele>
        <time>2019-03-28T14:57:24.000Z</time>
      </trkpt>
      <trkpt lat="44.8312" lon="5.06396">
        <ele>555.72</ele>
        <time>2019-03-28T14:57:55.000Z</time>
      </trkpt>
      <trkpt lat="44.83113" lon="5.06423">
        <ele>556.37</ele>
        <time>2019-03-28T14:58:15.000Z</time>
      </trkpt>
      <trkpt lat="44.83122" lon="5.06446">
        <ele>551.7</ele>
        <time>2019-03-28T15:00:27.000Z</time>
      </trkpt>
      <trkpt lat="44.83116" lon="5.06482">
        <ele>554.43</ele>
        <time>2019-03-28T15:00:47.000Z</time>
      </trkpt>
      <trkpt lat="44.83114" lon="5.06509">
        <ele>556.93</ele>
        <time>2019-03-28T15:01:13.000Z</time>
      </trkpt>
      <trkpt lat="44.83123" lon="5.06532">
        <ele>559.72</ele>
        <time>2019-03-28T15:01:51.000Z</time>
      </trkpt>
      <trkpt lat="44.83141" lon="5.06521">
        <ele>556.46</ele>
        <time>2019-03-28T15:02:17.000Z</time>
      </trkpt>
      <trkpt lat="44.83159" lon="5.06514">
        <ele>553.52</ele>
        <time>2019-03-28T15:02:37.000Z</time>
      </trkpt>
      <trkpt lat="44.83177" lon="5.06528">
        <ele>554.79</ele>
        <time>2019-03-28T15:02:57.000Z</time>
      </trkpt>
      <trkpt lat="44.83194" lon="5.06551">
        <ele>557.99</ele>
        <time>2019-03-28T15:03:17.000Z</time>
      </trkpt>
      <trkpt lat="44.8321" lon="5.06541">
        <ele>553.98</ele>
        <time>2019-03-28T15:05:25.000Z</time>
      </trkpt>
      <trkpt lat="44.83242" lon="5.06504">
        <ele>544.73</ele>
        <time>2019-03-28T15:05:45.000Z</time>
      </trkpt>
      <trkpt lat="44.83255" lon="5.06487">
        <ele>541.74</ele>
        <time>2019-03-28T15:06:53.000Z</time>
      </trkpt>
      <trkpt lat="44.83262" lon="5.06463">
        <ele>537.63</ele>
        <time>2019-03-28T15:07:26.000Z</time>
      </trkpt>
      <trkpt lat="44.83267" lon="5.06438">
        <ele>533.18</ele>
        <time>2019-03-28T15:07:59.000Z</time>
      </trkpt>
      <trkpt lat="44.83279" lon="5.0642">
        <ele>529.4</ele>
        <time>2019-03-28T15:08:35.000Z</time>
      </trkpt>
      <trkpt lat="44.83281" lon="5.0639">
        <ele>521.77</ele>
        <time>2019-03-28T15:09:46.000Z</time>
      </trkpt>
      <trkpt lat="44.83292" lon="5.06361">
        <ele>513.82</ele>
        <time>2019-03-28T15:10:06.000Z</time>
      </trkpt>
      <trkpt lat="44.83301" lon="5.06326">
        <ele>506.62</ele>
        <time>2019-03-28T15:10:26.000Z</time>
      </trkpt>
      <trkpt lat="44.8331" lon="5.06304">
        <ele>502.39</ele>
        <time>2019-03-28T15:11:24.000Z</time>
      </trkpt>
      <trkpt lat="44.83315" lon="5.06272">
        <ele>496.67</ele>
        <time>2019-03-28T15:11:44.000Z</time>
      </trkpt>
      <trkpt lat="44.83314" lon="5.06246">
        <ele>495.63</ele>
        <time>2019-03-28T15:12:05.000Z</time>
      </trkpt>
      <trkpt lat="44.83333" lon="5.06236">
        <ele>490.87</ele>
        <time>2019-03-28T15:12:26.000Z</time>
      </trkpt>
      <trkpt lat="44.83339" lon="5.06211">
        <ele>490.85</ele>
        <time>2019-03-28T15:12:51.000Z</time>
      </trkpt>
      <trkpt lat="44.83372" lon="5.06199">
        <ele>484.83</ele>
        <time>2019-03-28T15:13:11.000Z</time>
      </trkpt>
      <trkpt lat="44.83378" lon="5.06167">
        <ele>482.75</ele>
        <time>2019-03-28T15:16:14.000Z</time>
      </trkpt>
      <trkpt lat="44.83464" lon="5.06098">
        <ele>468.46</ele>
        <time>2019-03-28T15:16:34.000Z</time>
      </trkpt>
      <trkpt lat="44.83497" lon="5.06073">
        <ele>461.12</ele>
        <time>2019-03-28T15:16:54.000Z</time>
      </trkpt>
      <trkpt lat="44.83512" lon="5.06053">
        <ele>459.19</ele>
        <time>2019-03-28T15:17:16.000Z</time>
      </trkpt>
      <trkpt lat="44.83495" lon="5.06035">
        <ele>464.91</ele>
        <time>2019-03-28T15:17:41.000Z</time>
      </trkpt>
      <trkpt lat="44.8352" lon="5.06032">
        <ele>458.42</ele>
        <time>2019-03-28T15:18:11.000Z</time>
      </trkpt>
      <trkpt lat="44.83512" lon="5.06009">
        <ele>463.29</ele>
        <time>2019-03-28T15:18:36.000Z</time>
      </trkpt>
      <trkpt lat="44.83565" lon="5.05998">
        <ele>445.26</ele>
        <time>2019-03-28T15:18:56.000Z</time>
      </trkpt>
      <trkpt lat="44.83551" lon="5.05982">
        <ele>451.59</ele>
        <time>2019-03-28T15:19:41.000Z</time>
      </trkpt>
      <trkpt lat="44.8358" lon="5.05973">
        <ele>445.04</ele>
        <time>2019-03-28T15:20:01.000Z</time>
      </trkpt>
      <trkpt lat="44.83612" lon="5.05963">
        <ele>443.26</ele>
        <time>2019-03-28T15:20:21.000Z</time>
      </trkpt>
      <trkpt lat="44.83598" lon="5.05942">
        <ele>448.33</ele>
        <time>2019-03-28T15:20:41.000Z</time>
      </trkpt>
      <trkpt lat="44.83604" lon="5.05916">
        <ele>450.85</ele>
        <time>2019-03-28T15:21:01.000Z</time>
      </trkpt>
      <trkpt lat="44.83589" lon="5.05886">
        <ele>461.64</ele>
        <time>2019-03-28T15:21:21.000Z</time>
      </trkpt>
      <trkpt lat="44.83603" lon="5.05868">
        <ele>458.16</ele>
        <time>2019-03-28T15:21:41.000Z</time>
      </trkpt>
      <trkpt lat="44.83597" lon="5.05838">
        <ele>466.69</ele>
        <time>2019-03-28T15:22:01.000Z</time>
      </trkpt>
      <trkpt lat="44.83616" lon="5.05826">
        <ele>456.81</ele>
        <time>2019-03-28T15:22:22.000Z</time>
      </trkpt>
      <trkpt lat="44.83672" lon="5.05823">
        <ele>430.83</ele>
        <time>2019-03-28T15:22:42.000Z</time>
      </trkpt>
      <trkpt lat="44.83702" lon="5.05796">
        <ele>428.63</ele>
        <time>2019-03-28T15:23:02.000Z</time>
      </trkpt>
      <trkpt lat="44.8368" lon="5.05785">
        <ele>435.6</ele>
        <time>2019-03-28T15:23:26.000Z</time>
      </trkpt>
      <trkpt lat="44.83691" lon="5.05765">
        <ele>435.55</ele>
        <time>2019-03-28T15:26:09.000Z</time>
      </trkpt>
      <trkpt lat="44.83675" lon="5.05744">
        <ele>445.94</ele>
        <time>2019-03-28T15:27:50.000Z</time>
      </trkpt>
      <trkpt lat="44.83696" lon="5.05675">
        <ele>448.41</ele>
        <time>2019-03-28T15:28:10.000Z</time>
      </trkpt>
      <trkpt lat="44.83795" lon="5.05626">
        <ele>419.7</ele>
        <time>2019-03-28T15:28:30.000Z</time>
      </trkpt>
      <trkpt lat="44.83811" lon="5.05611">
        <ele>415.66</ele>
        <time>2019-03-28T15:28:59.000Z</time>
      </trkpt>
      <trkpt lat="44.83829" lon="5.05597">
        <ele>411.38</ele>
        <time>2019-03-28T15:29:21.000Z</time>
      </trkpt>
      <trkpt lat="44.83847" lon="5.05588">
        <ele>408.74</ele>
        <time>2019-03-28T15:29:43.000Z</time>
      </trkpt>
      <trkpt lat="44.83778" lon="5.05556">
        <ele>437.06</ele>
        <time>2019-03-28T15:30:08.000Z</time>
      </trkpt>
      <trkpt lat="44.83816" lon="5.05562">
        <ele>418.75</ele>
        <time>2019-03-28T15:30:28.000Z</time>
      </trkpt>
      <trkpt lat="44.83836" lon="5.05567">
        <ele>411.87</ele>
        <time>2019-03-28T15:30:48.000Z</time>
      </trkpt>
      <trkpt lat="44.83834" lon="5.0554">
        <ele>416.06</ele>
        <time>2019-03-28T15:32:28.000Z</time>
      </trkpt>
      <trkpt lat="44.83846" lon="5.05502">
        <ele>418.14</ele>
        <time>2019-03-28T15:32:48.000Z</time>
      </trkpt>
      <trkpt lat="44.83832" lon="5.05483">
        <ele>425.72</ele>
        <time>2019-03-28T15:35:26.000Z</time>
      </trkpt>
      <trkpt lat="44.83872" lon="5.0539">
        <ele>418.41</ele>
        <time>2019-03-28T15:35:46.000Z</time>
      </trkpt>
      <trkpt lat="44.83906" lon="5.05315">
        <ele>405.13</ele>
        <time>2019-03-28T15:36:06.000Z</time>
      </trkpt>
      <trkpt lat="44.83895" lon="5.05295">
        <ele>408.75</ele>
        <time>2019-03-28T15:36:26.000Z</time>
      </trkpt>
      <trkpt lat="44.83887" lon="5.05271">
        <ele>410.79</ele>
        <time>2019-03-28T15:37:11.000Z</time>
      </trkpt>
      <trkpt lat="44.83874" lon="5.0525">
        <ele>414.88</ele>
        <time>2019-03-28T15:37:48.000Z</time>
      </trkpt>
      <trkpt lat="44.83863" lon="5.05217">
        <ele>415.37</ele>
        <time>2019-03-28T15:38:08.000Z</time>
      </trkpt>
      <trkpt lat="44.83847" lon="5.05204">
        <ele>419.49</ele>
        <time>2019-03-28T15:38:43.000Z</time>
      </trkpt>
      <trkpt lat="44.83841" lon="5.05176">
        <ele>417.02</ele>
        <time>2019-03-28T15:39:03.000Z</time>
      </trkpt>
      <trkpt lat="44.8383" lon="5.05153">
        <ele>417.57</ele>
        <time>2019-03-28T15:41:39.000Z</time>
      </trkpt>
      <trkpt lat="44.83813" lon="5.05119">
        <ele>419.91</ele>
        <time>2019-03-28T15:41:59.000Z</time>
      </trkpt>
      <trkpt lat="44.83788" lon="5.05076">
        <ele>425.12</ele>
        <time>2019-03-28T15:42:19.000Z</time>
      </trkpt>
      <trkpt lat="44.83798" lon="5.05055">
        <ele>422.45</ele>
        <time>2019-03-28T15:42:40.000Z</time>
      </trkpt>
      <trkpt lat="44.83786" lon="5.05033">
        <ele>424.55</ele>
        <time>2019-03-28T15:43:44.000Z</time>
      </trkpt>
      <trkpt lat="44.83788" lon="5.04974">
        <ele>416.77</ele>
        <time>2019-03-28T15:44:04.000Z</time>
      </trkpt>
      <trkpt lat="44.83769" lon="5.04963">
        <ele>412.59</ele>
        <time>2019-03-28T15:44:36.000Z</time>
      </trkpt>
      <trkpt lat="44.83757" lon="5.04942">
        <ele>404.88</ele>
        <time>2019-03-28T15:44:56.000Z</time>
      </trkpt>
      <trkpt lat="44.8374" lon="5.04927">
        <ele>399.08</ele>
        <time>2019-03-28T15:46:16.000Z</time>
      </trkpt>
      <trkpt lat="44.83721" lon="5.04927">
        <ele>398.66</ele>
        <time>2019-03-28T15:46:51.000Z</time>
      </trkpt>
      <trkpt lat="44.83699" lon="5.04912">
        <ele>395.79</ele>
        <time>2019-03-28T15:47:27.000Z</time>
      </trkpt>
      <trkpt lat="44.83686" lon="5.04891">
        <ele>390.86</ele>
        <time>2019-03-28T15:47:47.000Z</time>
      </trkpt>
      <trkpt lat="44.83668" lon="5.04899">
        <ele>393</ele>
        <time>2019-03-28T15:50:00.000Z</time>
      </trkpt>
      <trkpt lat="44.83644" lon="5.04903">
        <ele>392.72</ele>
        <time>2019-03-28T15:50:20.000Z</time>
      </trkpt>
      <trkpt lat="44.83628" lon="5.04934">
        <ele>398.21</ele>
        <time>2019-03-28T15:50:40.000Z</time>
      </trkpt>
      <trkpt lat="44.83634" lon="5.04908">
        <ele>393.02</ele>
        <time>2019-03-28T15:51:00.000Z</time>
      </trkpt>
      <trkpt lat="44.8362" lon="5.0489">
        <ele>386.79</ele>
        <time>2019-03-28T15:52:18.000Z</time>
      </trkpt>
      <trkpt lat="44.83602" lon="5.04877">
        <ele>381.3</ele>
        <time>2019-03-28T15:52:38.000Z</time>
      </trkpt>
      <trkpt lat="44.83618" lon="5.0486">
        <ele>377.48</ele>
        <time>2019-03-28T15:52:58.000Z</time>
      </trkpt>
      <trkpt lat="44.83615" lon="5.04834">
        <ele>370.69</ele>
        <time>2019-03-28T15:54:28.000Z</time>
      </trkpt>
      <trkpt lat="44.8362" lon="5.04809">
        <ele>366.95</ele>
        <time>2019-03-28T15:54:53.000Z</time>
      </trkpt>
      <trkpt lat="44.83611" lon="5.04772">
        <ele>362.08</ele>
        <time>2019-03-28T15:55:13.000Z</time>
      </trkpt>
      <trkpt lat="44.83604" lon="5.04745">
        <ele>358.44</ele>
        <time>2019-03-28T15:56:02.000Z</time>
      </trkpt>
      <trkpt lat="44.83582" lon="5.04737">
        <ele>356.42</ele>
        <time>2019-03-28T15:56:22.000Z</time>
      </trkpt>
      <trkpt lat="44.83573" lon="5.04715">
        <ele>353.79</ele>
        <time>2019-03-28T15:56:49.000Z</time>
      </trkpt>
      <trkpt lat="44.83551" lon="5.04709">
        <ele>353.6</ele>
        <time>2019-03-28T15:57:09.000Z</time>
      </trkpt>
      <trkpt lat="44.83534" lon="5.04701">
        <ele>353.37</ele>
        <time>2019-03-28T15:57:46.000Z</time>
      </trkpt>
      <trkpt lat="44.8351" lon="5.04682">
        <ele>351.3</ele>
        <time>2019-03-28T15:58:06.000Z</time>
      </trkpt>
      <trkpt lat="44.83491" lon="5.04677">
        <ele>350.78</ele>
        <time>2019-03-28T15:58:32.000Z</time>
      </trkpt>
      <trkpt lat="44.83468" lon="5.04669">
        <ele>350.12</ele>
        <time>2019-03-28T15:58:52.000Z</time>
      </trkpt>
      <trkpt lat="44.83455" lon="5.0465">
        <ele>347.34</ele>
        <time>2019-03-28T15:59:13.000Z</time>
      </trkpt>
      <trkpt lat="44.83423" lon="5.04653">
        <ele>348.27</ele>
        <time>2019-03-28T15:59:33.000Z</time>
      </trkpt>
      <trkpt lat="44.83416" lon="5.04629">
        <ele>344.49</ele>
        <time>2019-03-28T16:00:23.000Z</time>
      </trkpt>
      <trkpt lat="44.83393" lon="5.04628">
        <ele>343.34</ele>
        <time>2019-03-28T16:00:43.000Z</time>
      </trkpt>
      <trkpt lat="44.83376" lon="5.04607">
        <ele>339.38</ele>
        <time>2019-03-28T16:01:56.000Z</time>
      </trkpt>
      <trkpt lat="44.83371" lon="5.04581">
        <ele>335.93</ele>
        <time>2019-03-28T16:02:20.000Z</time>
      </trkpt>
      <trkpt lat="44.83392" lon="5.04585">
        <ele>337.44</ele>
        <time>2019-03-28T16:02:43.000Z</time>
      </trkpt>
      <trkpt lat="44.83405" lon="5.04539">
        <ele>332.41</ele>
        <time>2019-03-28T16:03:03.000Z</time>
      </trkpt>
      <trkpt lat="44.83428" lon="5.04548">
        <ele>333.44</ele>
        <time>2019-03-28T16:03:23.000Z</time>
      </trkpt>
      <trkpt lat="44.83455" lon="5.04544">
        <ele>332.43</ele>
        <time>2019-03-28T16:03:43.000Z</time>
      </trkpt>
      <trkpt lat="44.83463" lon="5.04511">
        <ele>329.55</ele>
        <time>2019-03-28T16:04:03.000Z</time>
      </trkpt>
      <trkpt lat="44.83492" lon="5.04508">
        <ele>329.34</ele>
        <time>2019-03-28T16:04:23.000Z</time>
      </trkpt>
      <trkpt lat="44.83506" lon="5.04487">
        <ele>328.59</ele>
        <time>2019-03-28T16:04:43.000Z</time>
      </trkpt>
      <trkpt lat="44.83525" lon="5.0448">
        <ele>328.61</ele>
        <time>2019-03-28T16:05:15.000Z</time>
      </trkpt>
      <trkpt lat="44.83529" lon="5.04448">
        <ele>328.22</ele>
        <time>2019-03-28T16:05:49.000Z</time>
      </trkpt>
      <trkpt lat="44.83549" lon="5.04431">
        <ele>327.95</ele>
        <time>2019-03-28T16:06:09.000Z</time>
      </trkpt>
      <trkpt lat="44.83549" lon="5.04403">
        <ele>326.99</ele>
        <time>2019-03-28T16:06:35.000Z</time>
      </trkpt>
      <trkpt lat="44.83532" lon="5.04359">
        <ele>325.72</ele>
        <time>2019-03-28T16:06:55.000Z</time>
      </trkpt>
      <trkpt lat="44.83548" lon="5.04343">
        <ele>323.85</ele>
        <time>2019-03-28T16:07:28.000Z</time>
      </trkpt>
      <trkpt lat="44.8358" lon="5.04352">
        <ele>325.1</ele>
        <time>2019-03-28T16:07:48.000Z</time>
      </trkpt>
      <trkpt lat="44.8356" lon="5.0434">
        <ele>323.16</ele>
        <time>2019-03-28T16:08:08.000Z</time>
      </trkpt>
      <trkpt lat="44.83533" lon="5.04335">
        <ele>324.43</ele>
        <time>2019-03-28T16:08:28.000Z</time>
      </trkpt>
      <trkpt lat="44.83531" lon="5.0436">
        <ele>325.85</ele>
        <time>2019-03-28T16:09:02.000Z</time>
      </trkpt>
      <trkpt lat="44.83511" lon="5.04353">
        <ele>327.4</ele>
        <time>2019-03-28T16:11:27.000Z</time>
      </trkpt>
      <trkpt lat="44.83494" lon="5.04339">
        <ele>329.79</ele>
        <time>2019-03-28T16:11:48.000Z</time>
      </trkpt>
      <trkpt lat="44.83448" lon="5.04335">
        <ele>340.57</ele>
        <time>2019-03-28T16:16:30.000Z</time>
      </trkpt>
      <trkpt lat="44.8343" lon="5.04334">
        <ele>345.16</ele>
        <time>2019-03-28T16:28:37.000Z</time>
      </trkpt>
      <trkpt lat="44.83409" lon="5.04338">
        <ele>349.05</ele>
        <time>2019-03-28T16:28:57.000Z</time>
      </trkpt>
      <trkpt lat="44.83386" lon="5.04343">
        <ele>352.01</ele>
        <time>2019-03-28T16:29:17.000Z</time>
      </trkpt>
      <trkpt lat="44.83368" lon="5.0435">
        <ele>352.91</ele>
        <time>2019-03-28T16:29:45.000Z</time>
      </trkpt>
      <trkpt lat="44.8335" lon="5.04339">
        <ele>358.09</ele>
        <time>2019-03-28T16:30:43.000Z</time>
      </trkpt>
      <trkpt lat="44.83331" lon="5.0434">
        <ele>360.42</ele>
        <time>2019-03-28T16:31:13.000Z</time>
      </trkpt>
      <trkpt lat="44.83312" lon="5.0434">
        <ele>362.84</ele>
        <time>2019-03-28T16:31:36.000Z</time>
      </trkpt>
      <trkpt lat="44.83294" lon="5.04344">
        <ele>364.21</ele>
        <time>2019-03-28T16:32:22.000Z</time>
      </trkpt>
      <trkpt lat="44.83274" lon="5.04333">
        <ele>367.94</ele>
        <time>2019-03-28T16:32:42.000Z</time>
      </trkpt>
      <trkpt lat="44.83256" lon="5.0433">
        <ele>369.69</ele>
        <time>2019-03-28T16:33:08.000Z</time>
      </trkpt>
      <trkpt lat="44.83236" lon="5.04327">
        <ele>371.02</ele>
        <time>2019-03-28T16:34:31.000Z</time>
      </trkpt>
      <trkpt lat="44.8321" lon="5.04332">
        <ele>372.14</ele>
        <time>2019-03-28T16:34:51.000Z</time>
      </trkpt>
      <trkpt lat="44.83189" lon="5.0433">
        <ele>372.87</ele>
        <time>2019-03-28T16:35:11.000Z</time>
      </trkpt>
      <trkpt lat="44.83169" lon="5.04337">
        <ele>373.78</ele>
        <time>2019-03-28T16:35:59.000Z</time>
      </trkpt>
      <trkpt lat="44.83149" lon="5.04326">
        <ele>374.99</ele>
        <time>2019-03-28T16:36:19.000Z</time>
      </trkpt>
      <trkpt lat="44.83127" lon="5.04329">
        <ele>376.99</ele>
        <time>2019-03-28T16:37:08.000Z</time>
      </trkpt>
      <trkpt lat="44.83089" lon="5.04333">
        <ele>379.75</ele>
        <time>2019-03-28T16:37:28.000Z</time>
      </trkpt>
      <trkpt lat="44.83071" lon="5.04336">
        <ele>380.28</ele>
        <time>2019-03-28T16:37:50.000Z</time>
      </trkpt>
      <trkpt lat="44.83048" lon="5.04338">
        <ele>380.31</ele>
        <time>2019-03-28T16:38:58.000Z</time>
      </trkpt>
      <trkpt lat="44.83015" lon="5.04332">
        <ele>380.09</ele>
        <time>2019-03-28T16:39:18.000Z</time>
      </trkpt>
      <trkpt lat="44.82996" lon="5.04331">
        <ele>379.98</ele>
        <time>2019-03-28T16:39:38.000Z</time>
      </trkpt>
      <trkpt lat="44.82973" lon="5.04329">
        <ele>379.62</ele>
        <time>2019-03-28T16:39:58.000Z</time>
      </trkpt>
      <trkpt lat="44.82956" lon="5.04321">
        <ele>378.64</ele>
        <time>2019-03-28T16:40:29.000Z</time>
      </trkpt>
      <trkpt lat="44.82939" lon="5.04334">
        <ele>379.55</ele>
        <time>2019-03-28T16:40:55.000Z</time>
      </trkpt>
      <trkpt lat="44.82947" lon="5.04362">
        <ele>379.25</ele>
        <time>2019-03-28T16:41:26.000Z</time>
      </trkpt>
      <trkpt lat="44.82928" lon="5.04341">
        <ele>380.1</ele>
        <time>2019-03-28T16:41:46.000Z</time>
      </trkpt>
      <trkpt lat="44.82908" lon="5.04338">
        <ele>380.85</ele>
        <time>2019-03-28T16:42:30.000Z</time>
      </trkpt>
      <trkpt lat="44.8288" lon="5.04336">
        <ele>383.1</ele>
        <time>2019-03-28T16:42:50.000Z</time>
      </trkpt>
      <trkpt lat="44.82852" lon="5.04351">
        <ele>386.41</ele>
        <time>2019-03-28T16:43:10.000Z</time>
      </trkpt>
      <trkpt lat="44.82834" lon="5.04364">
        <ele>387.94</ele>
        <time>2019-03-28T16:43:52.000Z</time>
      </trkpt>
      <trkpt lat="44.82814" lon="5.04367">
        <ele>389.72</ele>
        <time>2019-03-28T16:44:59.000Z</time>
      </trkpt>
      <trkpt lat="44.82793" lon="5.0437">
        <ele>391.81</ele>
        <time>2019-03-28T16:45:19.000Z</time>
      </trkpt>
      <trkpt lat="44.82775" lon="5.04383">
        <ele>395</ele>
        <time>2019-03-28T16:45:41.000Z</time>
      </trkpt>
      <trkpt lat="44.82757" lon="5.04389">
        <ele>397.91</ele>
        <time>2019-03-28T16:46:01.000Z</time>
      </trkpt>
      <trkpt lat="44.82737" lon="5.04397">
        <ele>401.05</ele>
        <time>2019-03-28T16:46:25.000Z</time>
      </trkpt>
      <trkpt lat="44.8272" lon="5.04404">
        <ele>403.56</ele>
        <time>2019-03-28T16:46:48.000Z</time>
      </trkpt>
      <trkpt lat="44.82702" lon="5.04413">
        <ele>405.81</ele>
        <time>2019-03-28T16:47:21.000Z</time>
      </trkpt>
      <trkpt lat="44.82683" lon="5.04415">
        <ele>406.79</ele>
        <time>2019-03-28T16:48:07.000Z</time>
      </trkpt>
      <trkpt lat="44.82665" lon="5.04419">
        <ele>407.24</ele>
        <time>2019-03-28T16:49:04.000Z</time>
      </trkpt>
      <trkpt lat="44.82648" lon="5.04406">
        <ele>405.02</ele>
        <time>2019-03-28T16:50:53.000Z</time>
      </trkpt>
      <trkpt lat="44.82633" lon="5.04388">
        <ele>401.45</ele>
        <time>2019-03-28T16:51:13.000Z</time>
      </trkpt>
      <trkpt lat="44.82614" lon="5.04386">
        <ele>399.79</ele>
        <time>2019-03-28T16:52:10.000Z</time>
      </trkpt>
      <trkpt lat="44.82586" lon="5.04376">
        <ele>396.28</ele>
        <time>2019-03-28T16:52:30.000Z</time>
      </trkpt>
      <trkpt lat="44.82569" lon="5.04364">
        <ele>392.98</ele>
        <time>2019-03-28T16:53:27.000Z</time>
      </trkpt>
      <trkpt lat="44.82549" lon="5.04359">
        <ele>389.37</ele>
        <time>2019-03-28T16:53:48.000Z</time>
      </trkpt>
      <trkpt lat="44.82532" lon="5.04367">
        <ele>388.5</ele>
        <time>2019-03-28T16:54:17.000Z</time>
      </trkpt>
      <trkpt lat="44.8251" lon="5.04372">
        <ele>387.06</ele>
        <time>2019-03-28T16:56:04.000Z</time>
      </trkpt>
      <trkpt lat="44.82438" lon="5.04371">
        <ele>387.07</ele>
        <time>2019-03-28T16:59:39.000Z</time>
      </trkpt>
      <trkpt lat="44.82405" lon="5.04372">
        <ele>389.29</ele>
        <time>2019-03-28T16:59:59.000Z</time>
      </trkpt>
      <trkpt lat="44.82387" lon="5.04376">
        <ele>391.64</ele>
        <time>2019-03-28T17:01:06.000Z</time>
      </trkpt>
      <trkpt lat="44.82362" lon="5.04378">
        <ele>393.98</ele>
        <time>2019-03-28T17:01:26.000Z</time>
      </trkpt>
      <trkpt lat="44.82349" lon="5.0436">
        <ele>396.51</ele>
        <time>2019-03-28T17:02:14.000Z</time>
      </trkpt>
      <trkpt lat="44.82367" lon="5.04353">
        <ele>394.27</ele>
        <time>2019-03-28T17:02:45.000Z</time>
      </trkpt>
      <trkpt lat="44.82365" lon="5.04327">
        <ele>393.01</ele>
        <time>2019-03-28T17:05:03.000Z</time>
      </trkpt>
      <trkpt lat="44.8237" lon="5.04292">
        <ele>384.17</ele>
        <time>2019-03-28T17:05:23.000Z</time>
      </trkpt>
      <trkpt lat="44.82375" lon="5.0424">
        <ele>369.61</ele>
        <time>2019-03-28T17:05:43.000Z</time>
      </trkpt>
      <trkpt lat="44.8237" lon="5.04213">
        <ele>363.89</ele>
        <time>2019-03-28T17:06:22.000Z</time>
      </trkpt>
      <trkpt lat="44.82362" lon="5.04237">
        <ele>371.99</ele>
        <time>2019-03-28T17:06:48.000Z</time>
      </trkpt>
      <trkpt lat="44.82375" lon="5.04218">
        <ele>364.05</ele>
        <time>2019-03-28T17:07:08.000Z</time>
      </trkpt>
      <trkpt lat="44.82377" lon="5.04186">
        <ele>356.05</ele>
        <time>2019-03-28T17:07:28.000Z</time>
      </trkpt>
      <trkpt lat="44.82367" lon="5.04164">
        <ele>352.53</ele>
        <time>2019-03-28T17:08:42.000Z</time>
      </trkpt>
      <trkpt lat="44.82371" lon="5.04139">
        <ele>346.73</ele>
        <time>2019-03-28T17:09:06.000Z</time>
      </trkpt>
      <trkpt lat="44.82374" lon="5.04107">
        <ele>340.29</ele>
        <time>2019-03-28T17:09:26.000Z</time>
      </trkpt>
      <trkpt lat="44.8236" lon="5.04089">
        <ele>339.26</ele>
        <time>2019-03-28T17:09:47.000Z</time>
      </trkpt>
      <trkpt lat="44.82342" lon="5.04077">
        <ele>339.52</ele>
        <time>2019-03-28T17:10:11.000Z</time>
      </trkpt>
      <trkpt lat="44.82343" lon="5.04052">
        <ele>336.28</ele>
        <time>2019-03-28T17:10:34.000Z</time>
      </trkpt>
      <trkpt lat="44.82355" lon="5.04029">
        <ele>332.08</ele>
        <time>2019-03-28T17:11:00.000Z</time>
      </trkpt>
      <trkpt lat="44.82344" lon="5.04007">
        <ele>331.47</ele>
        <time>2019-03-28T17:11:24.000Z</time>
      </trkpt>
      <trkpt lat="44.82322" lon="5.03977">
        <ele>330.69</ele>
        <time>2019-03-28T17:11:44.000Z</time>
      </trkpt>
      <trkpt lat="44.82343" lon="5.0397">
        <ele>328.31</ele>
        <time>2019-03-28T17:13:16.000Z</time>
      </trkpt>
      <trkpt lat="44.82363" lon="5.0397">
        <ele>325.15</ele>
        <time>2019-03-28T17:14:13.000Z</time>
      </trkpt>
      <trkpt lat="44.82366" lon="5.03942">
        <ele>322.8</ele>
        <time>2019-03-28T17:14:34.000Z</time>
      </trkpt>
      <trkpt lat="44.82378" lon="5.03923">
        <ele>319.85</ele>
        <time>2019-03-28T17:14:54.000Z</time>
      </trkpt>
      <trkpt lat="44.82374" lon="5.03917">
        <ele>320.17</ele>
        <time>2019-03-28T17:15:07.000Z</time>
      </trkpt>
    </trkseg>
  </trk>
</gpx>